This is the latest recevied weather packets stored in our database for station/object G4GJR. If no packets are shown the sender has not sent any weather packets the latest 10 day(s).
| Time | Temp. | Humidity | Pressure | Rain* | Wind** | Luminosity | Snow |
|---|---|---|---|---|---|---|---|
| 1777407304 | 8.33° C | 70% | 1026.8 hPa | 0 mm | - | - | - |
| 1777406404 | 8.89° C | 71% | 1026.8 hPa | 0 mm | - | - | - |
| 1777405504 | 8.89° C | 70% | 1026.5 hPa | 0 mm | - | - | - |
| 1777395604 | 13.33° C | 64% | 1025.6 hPa | 0 mm | - | - | - |
| 1777385703 | 13.89° C | 66% | 1025.9 hPa | 0 mm | - | - | - |
| 1777380304 | 13.33° C | 68% | 1026.5 hPa | 0 mm | - | - | - |
| 1777369504 | 8.89° C | 85% | 1026.9 hPa | 0 mm | - | - | - |
| 1777368604 | 9.44° C | 84% | 1026.9 hPa | 0 mm | - | - | - |
| 1777358704 | 8.89° C | 86% | 1026.1 hPa | 0 mm | - | - | - |
| 1777356904 | 8.89° C | 86% | 1026 hPa | 0 mm | - | - | - |
| 1777351504 | 8.89° C | 90% | 1025.2 hPa | 0 mm | - | - | - |
| 1777338004 | 8.33° C | 87% | 1025.3 hPa | 0 mm | - | - | - |
| 1777336205 | 8.33° C | 87% | 1025.6 hPa | 0 mm | - | - | - |
| 1777334404 | 8.89° C | 89% | 1025.6 hPa | 0 mm | - | - | - |
| 1777333505 | 8.89° C | 89% | 1025.4 hPa | 0 mm | - | - | - |
| 1777332604 | 8.89° C | 89% | 1025.2 hPa | 0 mm | - | - | - |
| 1777329005 | 9.44° C | 88% | 1025 hPa | 0 mm | - | - | - |
| 1777318205 | 12.78° C | 73% | 1024.6 hPa | 0 mm | - | - | - |
| 1777301104 | 21.67° C | 39% | 1023 hPa | 0 mm | - | - | - |
| 1777294804 | 20° C | 44% | 1023.9 hPa | 0 mm | - | - | - |
| 1777288504 | 20.56° C | 42% | 1024.6 hPa | 0 mm | - | - | - |
| 1777278604 | 16.11° C | 61% | 1025.3 hPa | 0 mm | - | - | - |
| 1777277704 | 15° C | 64% | 1025.4 hPa | 0 mm | - | - | - |
| 1777273204 | 10.56° C | 84% | 1025.6 hPa | 0 mm | - | - | - |
| 1777271405 | 7.22° C | 90% | 1025.5 hPa | 0 mm | - | - | - |
* Rain latest hour (hover to see other rain measurements)
** Current wind speed in m/s (hover to see current wind gust speed)